Time;durP1;ratioP1;P1;durP2;ratioP2;P2;SDS_P1;SDS_P2;PMS_P1;PMS_P2;Temp;Humidity;BMP_temperature;BMP_pressure;BME280_temperature;BME280_humidity;BME280_pressure;Samples;Min_cycle;Max_cycle;Signal;HPM_P1;HPM_P2
2022/11/18 00:00:28;;;;;;;17.23;10.40;;;7.20;99.90;;;;;;5053869;28;20205;-73
2022/11/18 00:02:56;;;;;;;16.50;10.03;;;7.20;99.90;;;;;;5053735;28;20194;-72
2022/11/18 00:05:22;;;;;;;18.03;10.77;;;7.10;99.90;;;;;;5053951;28;20210;-72
2022/11/18 00:07:49;;;;;;;16.97;9.87;;;7.10;99.90;;;;;;5053662;28;20624;-72
2022/11/18 00:10:17;;;;;;;17.87;11.40;;;7.10;99.90;;;;;;5053660;28;20201;-72
2022/11/18 00:15:28;;;;;;;13.63;10.40;;;7.10;99.90;;;;;;5053897;28;20247;-72
2022/11/18 00:17:56;;;;;;;16.30;10.30;;;7.00;99.90;;;;;;5053652;28;20197;-72
2022/11/18 00:20:22;;;;;;;17.83;12.23;;;7.00;99.90;;;;;;5053612;28;20259;-72
2022/11/18 00:22:49;;;;;;;21.67;12.77;;;7.10;99.90;;;;;;5053494;28;20205;-72
2022/11/18 00:25:16;;;;;;;16.87;11.70;;;7.00;99.90;;;;;;5053382;28;20556;-72
2022/11/18 00:27:42;;;;;;;16.17;12.37;;;7.00;99.90;;;;;;5053217;28;20538;-72
2022/11/18 00:30:11;;;;;;;17.33;11.90;;;7.00;99.90;;;;;;5053430;28;20259;-72
2022/11/18 00:32:37;;;;;;;16.93;12.10;;;6.90;99.90;;;;;;5053452;28;20198;-72
2022/11/18 00:35:06;;;;;;;17.83;12.40;;;6.80;99.90;;;;;;5053292;28;20248;-73
2022/11/18 00:37:33;;;;;;;21.33;13.20;;;6.80;99.90;;;;;;5053562;28;20256;-72
2022/11/18 00:40:00;;;;;;;18.77;12.73;;;6.60;99.90;;;;;;5053102;28;20627;-72
2022/11/18 00:45:11;;;;;;;17.40;13.83;;;6.60;99.90;;;;;;5053352;28;20197;-72
2022/11/18 00:47:37;;;;;;;22.67;14.03;;;6.60;99.90;;;;;;5053139;28;20201;-72
2022/11/18 00:50:06;;;;;;;23.90;13.63;;;6.50;99.90;;;;;;5053061;28;20556;-72
2022/11/18 00:52:33;;;;;;;23.93;15.40;;;6.40;99.90;;;;;;5052929;28;20194;-72
2022/11/18 00:54:59;;;;;;;23.97;14.67;;;6.40;99.90;;;;;;5052789;28;20245;-72
2022/11/18 00:57:26;;;;;;;18.07;13.47;;;6.30;99.90;;;;;;5053069;28;20202;-72
2022/11/18 00:59:53;;;;;;;26.00;15.67;;;6.20;99.90;;;;;;5052923;28;20255;-72
2022/11/18 01:02:19;;;;;;;17.07;13.27;;;6.10;99.90;;;;;;5052858;28;20197;-72
2022/11/18 01:04:46;;;;;;;21.40;14.57;;;6.00;99.90;;;;;;5052737;28;20254;-72
2022/11/18 01:07:14;;;;;;;18.40;13.30;;;6.00;99.90;;;;;;5052532;28;20237;-72
2022/11/18 01:09:41;;;;;;;18.13;12.70;;;6.10;99.90;;;;;;5052969;28;20194;-72
2022/11/18 01:14:54;;;;;;;6.50;5.53;;;6.20;99.90;;;;;;5052772;28;20649;-72
2022/11/18 01:17:21;;;;;;;10.87;8.03;;;6.30;99.90;;;;;;5052586;28;20653;-72
2022/11/18 01:19:47;;;;;;;7.03;3.77;;;6.40;99.90;;;;;;5052403;28;20230;-72
2022/11/18 01:22:15;;;;;;;7.30;4.27;;;6.40;99.90;;;;;;5053090;28;20255;-72
2022/11/18 01:24:42;;;;;;;8.73;5.73;;;6.40;99.90;;;;;;5056843;28;20266;-72
2022/11/18 01:27:09;;;;;;;8.33;5.60;;;6.40;99.90;;;;;;5056737;28;20288;-72
2022/11/18 01:29:36;;;;;;;9.60;5.33;;;6.30;99.90;;;;;;5056639;28;20244;-72
2022/11/18 01:32:03;;;;;;;8.80;6.07;;;6.30;99.90;;;;;;5056750;28;20205;-72
2022/11/18 01:34:29;;;;;;;10.13;6.27;;;6.30;99.90;;;;;;5056358;28;20657;-72
2022/11/18 01:36:57;;;;;;;8.93;5.83;;;6.30;99.90;;;;;;5056453;28;20201;-72
2022/11/18 01:39:25;;;;;;;7.60;5.10;;;6.20;99.90;;;;;;5056453;28;20221;-71
2022/11/18 01:41:52;;;;;;;6.07;2.90;;;6.20;99.90;;;;;;5056666;28;20197;-73
2022/11/18 01:45:03;;;;;;;5.00;3.50;;;6.40;99.90;;;;;;5056399;28;20243;-73
2022/11/18 01:47:33;;;;;;;6.73;4.93;;;6.30;99.90;;;;;;5056507;28;20552;-73
2022/11/18 01:50:01;;;;;;;7.40;4.77;;;6.20;99.90;;;;;;5056494;28;20198;-73
2022/11/18 01:52:29;;;;;;;8.00;5.83;;;6.10;99.90;;;;;;5056409;28;20338;-74
2022/11/18 01:55:02;;;;;;;12.50;7.63;;;6.00;99.90;;;;;;5056224;28;20323;-73
2022/11/18 01:57:31;;;;;;;11.67;8.97;;;5.90;99.90;;;;;;5056111;28;20723;-71
2022/11/18 02:00:00;;;;;;;17.57;9.43;;;5.90;99.90;;;;;;5055932;28;20747;-73
2022/11/18 02:02:27;;;;;;;15.43;8.77;;;5.90;99.90;;;;;;5055869;28;20205;-73
2022/11/18 02:04:55;;;;;;;13.37;7.97;;;5.90;99.90;;;;;;5055993;28;20292;-73
2022/11/18 02:07:22;;;;;;;11.70;7.50;;;5.90;99.90;;;;;;5055908;28;20271;-73
2022/11/18 02:09:51;;;;;;;11.77;8.33;;;5.90;99.90;;;;;;5055826;28;20201;-73
2022/11/18 02:12:19;;;;;;;13.23;8.70;;;5.90;99.90;;;;;;5056069;28;20201;-73
2022/11/18 02:14:47;;;;;;;13.67;8.73;;;5.90;99.90;;;;;;5055941;28;20255;-73
2022/11/18 02:17:26;;;;;;;15.83;9.13;;;5.90;99.90;;;;;;5056166;28;20198;-73
2022/11/18 02:20:24;;;;;;;12.23;8.80;;;6.00;99.90;;;;;;5055872;28;20267;-73
2022/11/18 02:23:21;;;;;;;16.47;9.20;;;5.90;99.90;;;;;;5055054;28;20205;-73
2022/11/18 02:25:59;;;;;;;16.27;9.23;;;6.00;99.90;;;;;;5055701;28;20197;-73
2022/11/18 02:28:40;;;;;;;13.17;8.20;;;6.00;99.90;;;;;;5055634;28;20205;-73
2022/11/18 02:31:13;;;;;;;10.47;7.53;;;6.00;99.90;;;;;;5055759;28;20198;-73
2022/11/18 02:33:46;;;;;;;9.70;6.37;;;6.00;99.90;;;;;;5055038;28;20263;-73
2022/11/18 02:36:20;;;;;;;6.43;4.70;;;6.10;99.90;;;;;;5055180;28;20255;-72
2022/11/18 02:38:52;;;;;;;8.10;5.43;;;6.10;99.90;;;;;;5055307;28;20617;-73
2022/11/18 02:41:23;;;;;;;8.07;6.00;;;6.20;99.90;;;;;;5055290;28;20263;-73
2022/11/18 02:43:53;;;;;;;11.27;6.30;;;6.20;99.90;;;;;;5055455;28;20251;-73
2022/11/18 02:46:28;;;;;;;9.20;6.40;;;6.10;99.90;;;;;;5055303;28;20198;-73
2022/11/18 02:48:56;;;;;;;10.00;6.87;;;6.10;99.90;;;;;;5055326;28;20208;-73
2022/11/18 02:51:26;;;;;;;11.10;7.13;;;6.10;99.90;;;;;;5055075;28;20247;-73
2022/11/18 02:53:56;;;;;;;11.53;8.83;;;6.10;99.90;;;;;;5055345;28;20268;-72
2022/11/18 02:56:25;;;;;;;21.13;13.47;;;6.10;99.90;;;;;;5054971;28;20647;-73
2022/11/18 02:58:52;;;;;;;39.50;24.43;;;6.20;99.90;;;;;;5055034;28;20248;-72
2022/11/18 03:01:25;;;;;;;44.33;27.13;;;6.20;99.90;;;;;;5055208;28;20293;-72
2022/11/18 03:03:51;;;;;;;40.37;23.83;;;6.20;99.90;;;;;;5054930;28;20282;-73
2022/11/18 03:06:27;;;;;;;37.27;21.53;;;6.20;99.90;;;;;;5054771;28;20193;-73
2022/11/18 03:09:00;;;;;;;28.10;18.00;;;6.20;99.90;;;;;;5054936;28;20203;-72
2022/11/18 03:11:29;;;;;;;14.43;11.40;;;6.20;99.90;;;;;;5054879;28;20608;-73
2022/11/18 03:14:09;;;;;;;12.87;9.43;;;6.20;99.90;;;;;;5054736;28;20201;-73
2022/11/18 03:16:41;;;;;;;11.73;8.20;;;6.20;99.90;;;;;;5054558;28;20193;-72
2022/11/18 03:19:17;;;;;;;13.03;9.13;;;6.20;99.90;;;;;;5054659;28;20229;-73
2022/11/18 03:21:51;;;;;;;16.30;8.57;;;6.20;99.90;;;;;;5054672;28;20209;-72
2022/11/18 03:24:23;;;;;;;8.60;6.33;;;6.20;99.90;;;;;;5054530;28;20748;-73
2022/11/18 03:26:55;;;;;;;8.87;6.47;;;6.20;99.90;;;;;;5054480;28;20197;-73
2022/11/18 03:29:26;;;;;;;9.57;6.37;;;6.20;99.90;;;;;;5054724;28;20206;-72
2022/11/18 03:31:59;;;;;;;7.93;5.73;;;6.20;99.90;;;;;;5054510;28;20201;-73
2022/11/18 03:34:30;;;;;;;8.23;6.10;;;6.20;99.90;;;;;;5054403;28;20233;-73
2022/11/18 03:37:00;;;;;;;4.77;4.27;;;6.20;99.90;;;;;;5054345;28;20194;-73
2022/11/18 03:39:30;;;;;;;4.60;3.50;;;6.30;99.90;;;;;;5054024;28;20689;-72
2022/11/18 03:42:02;;;;;;;5.13;4.17;;;6.30;99.90;;;;;;5054329;28;20198;-73
2022/11/18 03:44:33;;;;;;;6.80;4.77;;;6.20;99.90;;;;;;5054321;28;20197;-72
2022/11/18 03:47:06;;;;;;;7.17;5.00;;;6.20;99.90;;;;;;5053879;28;20733;-72
2022/11/18 03:49:37;;;;;;;5.37;4.70;;;6.20;99.90;;;;;;5054015;28;20722;-72
2022/11/18 03:52:08;;;;;;;5.43;4.10;;;6.20;99.90;;;;;;5054008;28;20608;-72
2022/11/18 03:54:37;;;;;;;8.60;5.07;;;6.20;99.90;;;;;;5054068;28;20206;-73
2022/11/18 03:57:13;;;;;;;9.17;5.77;;;6.20;99.90;;;;;;5054043;28;20194;-73
2022/11/18 03:59:45;;;;;;;6.60;4.80;;;6.20;99.90;;;;;;5053888;28;20222;-72
2022/11/18 04:02:16;;;;;;;4.63;3.70;;;6.20;99.90;;;;;;5053792;28;20255;-72
2022/11/18 04:04:45;;;;;;;9.67;4.40;;;6.10;99.90;;;;;;5053701;28;20198;-72
2022/11/18 04:07:22;;;;;;;6.53;4.43;;;6.20;99.90;;;;;;5053637;28;20283;-72
2022/11/18 04:09:54;;;;;;;5.77;4.17;;;6.20;99.90;;;;;;5053784;28;20201;-72
2022/11/18 04:12:22;;;;;;;6.13;3.63;;;6.20;99.90;;;;;;5053742;28;20198;-72
2022/11/18 04:14:54;;;;;;;5.30;4.20;;;6.20;99.90;;;;;;5053606;28;20248;-72
2022/11/18 04:17:24;;;;;;;6.97;4.93;;;6.20;99.90;;;;;;5053799;28;20557;-72
2022/11/18 04:19:50;;;;;;;5.77;4.57;;;6.20;99.90;;;;;;5053525;28;20222;-72
2022/11/18 04:22:18;;;;;;;7.00;5.47;;;6.30;99.90;;;;;;5053574;28;20247;-72
2022/11/18 04:24:44;;;;;;;6.90;5.40;;;6.30;99.90;;;;;;5053459;28;20225;-72
2022/11/18 04:27:12;;;;;;;5.93;4.83;;;6.30;99.90;;;;;;5053335;28;20251;-72
2022/11/18 04:29:38;;;;;;;6.67;4.93;;;6.20;99.90;;;;;;5053274;28;20224;-72
2022/11/18 04:32:06;;;;;;;6.23;4.90;;;6.30;99.90;;;;;;5053407;28;20202;-72
2022/11/18 04:34:34;;;;;;;8.03;4.67;;;6.30;99.90;;;;;;5053297;28;20208;-72
2022/11/18 04:37:01;;;;;;;5.93;3.83;;;6.20;99.90;;;;;;5053254;28;20244;-72
2022/11/18 04:39:27;;;;;;;4.80;3.67;;;6.20;99.90;;;;;;5053069;28;20202;-72
2022/11/18 04:41:57;;;;;;;4.53;3.80;;;6.20;99.90;;;;;;5052980;28;20198;-72
2022/11/18 04:44:25;;;;;;;5.23;3.60;;;6.20;99.90;;;;;;5053191;28;20201;-72
2022/11/18 04:46:53;;;;;;;5.20;3.30;;;6.20;99.90;;;;;;5053158;28;20205;-72
2022/11/18 04:49:20;;;;;;;7.07;3.80;;;6.20;99.90;;;;;;5053109;28;20194;-73
2022/11/18 04:51:48;;;;;;;5.43;3.93;;;6.20;99.90;;;;;;5053024;28;20206;-72
2022/11/18 04:54:16;;;;;;;7.57;3.93;;;6.20;99.90;;;;;;5052843;28;20202;-72
2022/11/18 04:56:43;;;;;;;7.37;3.60;;;6.20;99.90;;;;;;5052625;28;20205;-72
2022/11/18 04:59:10;;;;;;;4.53;4.03;;;6.10;99.90;;;;;;5052725;28;20247;-72
2022/11/18 05:01:37;;;;;;;4.97;4.27;;;6.20;99.90;;;;;;5052816;28;20225;-72
2022/11/18 05:04:05;;;;;;;6.27;4.60;;;6.20;99.90;;;;;;5052883;28;20235;-72
2022/11/18 05:06:33;;;;;;;8.20;4.90;;;6.20;99.90;;;;;;5052694;28;20216;-72
2022/11/18 05:09:01;;;;;;;5.87;3.93;;;6.30;99.90;;;;;;5052739;28;20193;-72
2022/11/18 05:14:13;;;;;;;6.83;4.60;;;6.30;99.90;;;;;;5053016;28;20267;-72
2022/11/18 05:16:40;;;;;;;5.27;4.20;;;6.30;99.90;;;;;;5052665;28;20198;-72
2022/11/18 05:19:07;;;;;;;6.80;4.23;;;6.30;99.90;;;;;;5052625;28;20197;-72
2022/11/18 05:21:34;;;;;;;5.77;4.20;;;6.30;99.90;;;;;;5052481;28;20272;-72
2022/11/18 05:24:02;;;;;;;8.53;4.77;;;6.20;99.90;;;;;;5052738;28;20201;-72
2022/11/18 05:26:29;;;;;;;7.17;5.10;;;6.30;99.90;;;;;;5052649;28;20193;-72
2022/11/18 05:28:56;;;;;;;6.63;5.27;;;6.40;99.90;;;;;;5052570;28;20198;-72
2022/11/18 05:31:23;;;;;;;7.63;5.20;;;6.50;99.90;;;;;;5052621;28;20232;-72
2022/11/18 05:33:50;;;;;;;8.93;5.57;;;6.50;99.90;;;;;;5052420;28;20585;-72
2022/11/18 05:36:19;;;;;;;8.30;6.37;;;6.50;99.90;;;;;;5052313;28;20197;-72
2022/11/18 05:38:45;;;;;;;11.27;7.50;;;6.60;99.90;;;;;;5052541;28;20210;-72
2022/11/18 05:43:09;;;;;;;13.97;8.10;;;6.60;99.90;;;;;;5052400;28;20222;-72
2022/11/18 05:44:00;;;;;;;10.90;8.20;;;6.60;99.90;;;;;;5052331;28;20557;-72
2022/11/18 05:46:28;;;;;;;12.57;8.07;;;6.70;99.90;;;;;;5052319;28;20197;-72
2022/11/18 05:48:55;;;;;;;15.00;8.87;;;6.60;99.90;;;;;;5052559;28;20198;-72
2022/11/18 05:51:22;;;;;;;12.00;8.70;;;6.70;99.90;;;;;;5052595;28;20197;-72
2022/11/18 05:53:51;;;;;;;12.33;8.37;;;6.70;99.90;;;;;;5052518;28;20264;-72
2022/11/18 05:56:22;;;;;;;11.53;8.10;;;6.70;99.90;;;;;;5052313;28;20267;-72
2022/11/18 05:58:49;;;;;;;11.47;8.37;;;6.80;99.90;;;;;;5052322;28;20197;-72
2022/11/18 06:01:19;;;;;;;12.37;8.13;;;6.80;99.90;;;;;;5052015;28;20222;-72
2022/11/18 06:03:46;;;;;;;12.67;8.07;;;6.80;99.90;;;;;;5052606;28;20275;-72
2022/11/18 06:06:15;;;;;;;12.13;7.77;;;6.80;99.90;;;;;;5052066;28;20635;-72
2022/11/18 06:08:47;;;;;;;9.23;7.23;;;6.90;99.90;;;;;;5052983;28;20643;-72
2022/11/18 06:11:16;;;;;;;14.10;8.27;;;6.90;99.90;;;;;;5056082;28;20221;-71
2022/11/18 06:13:52;;;;;;;10.67;8.20;;;6.90;99.90;;;;;;5056066;28;20198;-72
2022/11/18 06:16:22;;;;;;;11.53;8.77;;;6.90;99.90;;;;;;5056404;28;20199;-72
2022/11/18 06:18:49;;;;;;;11.93;8.50;;;6.90;99.90;;;;;;5055925;28;20255;-72
2022/11/18 06:21:15;;;;;;;12.07;8.57;;;6.90;99.90;;;;;;5055876;28;20229;-72
2022/11/18 06:23:43;;;;;;;14.30;9.10;;;6.90;99.90;;;;;;5055851;28;20255;-72
2022/11/18 06:26:11;;;;;;;16.97;9.07;;;7.00;99.90;;;;;;5055591;28;20251;-71
2022/11/18 06:28:39;;;;;;;12.70;9.37;;;7.00;99.90;;;;;;5055918;28;20202;-71
2022/11/18 06:31:07;;;;;;;15.37;9.43;;;7.00;99.90;;;;;;5055675;28;20194;-71
2022/11/18 06:33:34;;;;;;;11.80;8.43;;;7.00;99.90;;;;;;5055359;28;20267;-71
2022/11/18 06:36:00;;;;;;;10.47;8.37;;;7.00;99.90;;;;;;5055480;28;20208;-72
2022/11/18 06:38:27;;;;;;;11.37;7.83;;;7.00;99.90;;;;;;5055639;28;20202;-71
2022/11/18 06:40:54;;;;;;;10.67;7.10;;;6.90;99.90;;;;;;5054986;28;20222;-72
2022/11/18 06:43:37;;;;;;;9.87;6.97;;;7.00;99.90;;;;;;5055337;28;20247;-72
2022/11/18 06:48:51;;;;;;;10.63;9.30;;;6.90;99.90;;;;;;5055478;28;20553;-71
2022/11/18 06:51:18;;;;;;;10.73;7.20;;;6.90;99.90;;;;;;5055093;28;20201;-72
2022/11/18 06:53:45;;;;;;;6.53;5.40;;;6.90;99.90;;;;;;5055084;28;20194;-72
2022/11/18 06:56:14;;;;;;;11.20;8.00;;;6.90;99.90;;;;;;5055188;28;20201;-71
2022/11/18 06:58:41;;;;;;;10.07;6.97;;;6.90;99.90;;;;;;5055420;28;20197;-72
2022/11/18 07:01:12;;;;;;;7.37;5.83;;;6.90;99.90;;;;;;5054819;28;20267;-71
2022/11/18 07:03:39;;;;;;;9.57;6.97;;;6.90;99.90;;;;;;5054848;28;20204;-70
2022/11/18 07:06:08;;;;;;;6.57;5.13;;;6.90;99.90;;;;;;5055137;28;20197;-70
2022/11/18 07:08:36;;;;;;;13.23;10.27;;;6.80;99.90;;;;;;5054983;28;20279;-71
2022/11/18 07:11:04;;;;;;;7.80;5.93;;;6.90;99.90;;;;;;5054950;28;20288;-71
2022/11/18 07:13:30;;;;;;;9.43;7.47;;;6.80;99.90;;;;;;5055064;28;20552;-71
2022/11/18 07:16:03;;;;;;;7.03;5.70;;;6.80;99.90;;;;;;5054747;28;20669;-71
2022/11/18 07:18:31;;;;;;;14.83;12.00;;;6.80;99.90;;;;;;5054991;28;20206;-72
2022/11/18 07:21:01;;;;;;;7.17;4.83;;;6.80;99.90;;;;;;5054265;28;20225;-72
2022/11/18 07:23:30;;;;;;;8.43;4.37;;;6.80;99.90;;;;;;5054644;28;20285;-73
2022/11/18 07:25:56;;;;;;;6.53;4.60;;;6.80;99.90;;;;;;5054527;28;20197;-73
2022/11/18 07:28:23;;;;;;;7.20;4.83;;;6.80;99.90;;;;;;5054629;28;20252;-71
2022/11/18 07:30:50;;;;;;;5.00;4.43;;;6.80;99.90;;;;;;5054503;28;20202;-71
2022/11/18 07:33:17;;;;;;;10.90;8.33;;;6.80;99.90;;;;;;5054612;28;20640;-71
2022/11/18 07:35:43;;;;;;;9.53;7.17;;;6.90;99.90;;;;;;5054599;28;20231;-72
2022/11/18 07:38:10;;;;;;;10.03;5.67;;;6.80;99.90;;;;;;5055996;28;20210;-73
2022/11/18 07:40:38;;;;;;;5.97;3.40;;;6.80;99.90;;;;;;5056698;28;20218;-71
2022/11/18 07:43:06;;;;;;;5.50;3.73;;;6.80;99.90;;;;;;5054049;28;20194;-72
2022/11/18 07:45:32;;;;;;;7.77;5.03;;;6.80;99.90;;;;;;5054258;28;20201;-72
2022/11/18 07:47:59;;;;;;;7.73;4.47;;;6.80;99.90;;;;;;5054533;28;20240;-72
2022/11/18 07:50:26;;;;;;;5.40;4.20;;;6.80;99.90;;;;;;5054180;28;20580;-72
2022/11/18 07:52:55;;;;;;;8.03;5.10;;;6.80;99.90;;;;;;5054121;28;20550;-72
2022/11/18 07:55:22;;;;;;;8.63;5.10;;;6.80;99.90;;;;;;5053937;28;20487;-72
2022/11/18 07:57:50;;;;;;;9.80;6.20;;;6.80;99.90;;;;;;5053809;28;20193;-72
2022/11/18 08:00:18;;;;;;;34.40;17.10;;;6.80;99.90;;;;;;5053644;28;20564;-72
2022/11/18 08:02:44;;;;;;;29.10;14.77;;;6.80;99.90;;;;;;5053829;28;20657;-72
2022/11/18 08:05:11;;;;;;;21.83;10.07;;;6.80;99.90;;;;;;5053968;28;20260;-72
2022/11/18 08:07:38;;;;;;;6.70;5.50;;;6.80;99.90;;;;;;5053562;28;20316;-71
2022/11/18 08:10:05;;;;;;;7.67;5.20;;;6.70;99.90;;;;;;5054142;28;20198;-72
2022/11/18 08:12:31;;;;;;;9.13;8.23;;;6.70;99.90;;;;;;5054258;28;20262;-71
2022/11/18 08:14:59;;;;;;;10.20;8.27;;;6.70;99.90;;;;;;5054062;28;20253;-71
2022/11/18 08:17:26;;;;;;;6.47;5.77;;;6.70;99.90;;;;;;5053715;28;20206;-71
2022/11/18 08:19:53;;;;;;;10.30;8.50;;;6.70;99.90;;;;;;5053752;28;20198;-71
2022/11/18 08:22:19;;;;;;;10.90;9.07;;;6.70;99.90;;;;;;5053917;28;20696;-71
2022/11/18 08:24:46;;;;;;;6.97;6.03;;;6.70;99.90;;;;;;5053569;28;20252;-70
2022/11/18 08:27:13;;;;;;;10.67;6.90;;;6.70;99.90;;;;;;5054347;28;20292;-71
2022/11/18 08:29:40;;;;;;;11.60;8.47;;;6.70;99.90;;;;;;5053952;28;20197;-71
2022/11/18 08:32:08;;;;;;;9.40;6.27;;;6.70;99.90;;;;;;5052986;28;20201;-71
2022/11/18 08:34:35;;;;;;;9.63;7.20;;;6.60;99.90;;;;;;5053655;28;20256;-71
2022/11/18 08:37:02;;;;;;;9.70;6.90;;;6.70;99.90;;;;;;5053753;28;20280;-71
2022/11/18 08:39:28;;;;;;;8.13;6.40;;;6.70;99.90;;;;;;5053383;28;20201;-71
2022/11/18 08:41:58;;;;;;;7.17;6.27;;;6.70;99.90;;;;;;5053451;28;20229;-70
2022/11/18 08:44:25;;;;;;;7.10;5.63;;;6.70;99.90;;;;;;5053722;28;20608;-71
2022/11/18 08:46:51;;;;;;;6.03;5.40;;;6.60;99.90;;;;;;5053536;28;20706;-71
2022/11/18 08:49:19;;;;;;;5.67;5.07;;;6.60;99.90;;;;;;5053426;28;20661;-72
2022/11/18 08:51:46;;;;;;;6.17;5.57;;;6.60;99.90;;;;;;5053512;28;20656;-72
2022/11/18 08:54:12;;;;;;;7.30;5.40;;;6.70;99.90;;;;;;5053406;28;20201;-72
2022/11/18 08:56:39;;;;;;;7.13;5.63;;;6.70;99.90;;;;;;5053724;28;20197;-72
2022/11/18 08:59:07;;;;;;;6.00;5.40;;;6.70;99.90;;;;;;5053724;28;20255;-72
2022/11/18 09:01:34;;;;;;;6.07;5.30;;;6.70;99.90;;;;;;5053312;28;20213;-72
2022/11/18 09:04:00;;;;;;;5.80;5.20;;;6.60;99.90;;;;;;5053430;28;20208;-71
2022/11/18 09:06:28;;;;;;;12.80;10.97;;;6.70;99.90;;;;;;5053241;28;20204;-71
2022/11/18 09:08:55;;;;;;;7.33;6.40;;;6.70;99.90;;;;;;5053546;28;20615;-71
2022/11/18 09:11:23;;;;;;;14.70;11.80;;;6.60;99.90;;;;;;5053394;28;20205;-71
2022/11/18 09:13:52;;;;;;;9.00;7.17;;;6.60;99.90;;;;;;5053310;28;20706;-71
2022/11/18 09:16:19;;;;;;;6.00;4.37;;;6.60;99.90;;;;;;5053173;28;20271;-71
2022/11/18 09:18:46;;;;;;;15.57;11.47;;;6.60;99.90;;;;;;5053583;28;20208;-71
2022/11/18 09:21:12;;;;;;;8.43;7.17;;;6.60;99.90;;;;;;5053538;28;20215;-71
2022/11/18 09:23:40;;;;;;;5.10;4.60;;;6.70;99.90;;;;;;5052848;28;20259;-71
2022/11/18 09:26:08;;;;;;;6.33;5.73;;;6.70;99.90;;;;;;5053108;28;20201;-71
2022/11/18 09:28:35;;;;;;;8.37;7.50;;;6.70;99.90;;;;;;5052803;28;20198;-71
2022/11/18 09:31:04;;;;;;;4.27;3.87;;;6.70;99.90;;;;;;5052565;28;20229;-71
2022/11/18 09:33:31;;;;;;;5.87;4.60;;;6.70;99.90;;;;;;5053370;28;20229;-76
2022/11/18 09:35:58;;;;;;;5.50;4.53;;;6.70;99.90;;;;;;5052973;28;20255;-71
2022/11/18 09:38:24;;;;;;;4.43;3.37;;;6.70;99.90;;;;;;5053852;28;20198;-71
2022/11/18 09:41:02;;;;;;;3.43;3.13;;;6.70;99.90;;;;;;5052887;28;20251;-72
2022/11/18 09:43:39;;;;;;;4.13;3.07;;;6.70;99.90;;;;;;5053836;28;20204;-70
2022/11/18 09:46:21;;;;;;;3.90;3.30;;;6.70;99.90;;;;;;5056594;28;20251;-71
2022/11/18 09:51:38;;;;;;;4.63;4.23;;;6.80;99.90;;;;;;5056357;28;20200;-71
2022/11/18 09:54:08;;;;;;;7.70;7.00;;;6.80;99.90;;;;;;5056496;28;20198;-71
2022/11/18 09:56:36;;;;;;;3.50;3.20;;;6.80;99.90;;;;;;5056228;28;20248;-71
2022/11/18 09:59:03;;;;;;;4.30;3.90;;;6.80;99.90;;;;;;5056567;28;20201;-71
2022/11/18 10:01:30;;;;;;;3.83;3.50;;;6.70;99.90;;;;;;5056481;28;20220;-71
2022/11/18 10:03:57;;;;;;;3.77;3.47;;;6.80;99.90;;;;;;5056143;28;20197;-71
2022/11/18 10:06:28;;;;;;;3.23;3.00;;;6.80;99.90;;;;;;5056094;28;20198;-71
2022/11/18 10:09:09;;;;;;;4.07;3.37;;;6.80;99.90;;;;;;5056141;28;20202;-71
2022/11/18 10:11:45;;;;;;;4.40;4.00;;;6.80;99.90;;;;;;5056295;28;20232;-71
2022/11/18 10:14:26;;;;;;;4.73;3.40;;;6.80;99.90;;;;;;5055811;28;20197;-71
2022/11/18 10:17:01;;;;;;;3.63;3.33;;;6.80;99.90;;;;;;5056147;28;20255;-72
2022/11/18 10:19:34;;;;;;;3.47;3.00;;;6.80;99.90;;;;;;5055894;28;20722;-71
2022/11/18 10:22:21;;;;;;;3.90;3.50;;;6.80;99.90;;;;;;5056067;28;20299;-71
2022/11/18 10:24:50;;;;;;;3.50;3.20;;;6.80;99.90;;;;;;5055962;28;20205;-68
2022/11/18 10:27:19;;;;;;;3.60;2.97;;;6.80;99.90;;;;;;5055842;28;20201;-71
2022/11/18 10:29:52;;;;;;;3.50;3.20;;;6.80;99.90;;;;;;5055609;28;20247;-72
2022/11/18 10:32:19;;;;;;;2.90;2.70;;;6.80;99.90;;;;;;5055721;28;20201;-70
2022/11/18 10:34:49;;;;;;;3.07;2.87;;;6.80;99.90;;;;;;5055755;28;20665;-70
2022/11/18 10:37:24;;;;;;;3.37;2.90;;;6.80;99.90;;;;;;5055847;28;20572;-70
2022/11/18 10:39:52;;;;;;;5.20;3.30;;;6.80;99.90;;;;;;5055576;28;20198;-70
2022/11/18 10:42:26;;;;;;;3.40;3.10;;;6.80;99.90;;;;;;5055521;28;20275;-69
2022/11/18 10:44:53;;;;;;;3.83;3.23;;;6.70;99.90;;;;;;5055928;28;20201;-69
2022/11/18 10:47:26;;;;;;;3.60;3.20;;;6.80;99.90;;;;;;5055626;28;20197;-69
2022/11/18 10:49:55;;;;;;;3.63;3.30;;;6.80;99.90;;;;;;5055582;28;20205;-69
2022/11/18 10:52:22;;;;;;;10.70;8.33;;;6.80;99.90;;;;;;5055526;28;20202;-69
2022/11/18 10:55:08;;;;;;;11.83;8.90;;;6.80;99.90;;;;;;5054584;28;20212;-69
2022/11/18 10:57:42;;;;;;;18.50;13.47;;;6.90;99.90;;;;;;5055515;28;20292;-69
2022/11/18 11:00:47;;;;;;;7.93;5.27;;;6.80;99.90;;;;;;5055678;28;20654;-69
2022/11/18 11:03:32;;;;;;;8.00;5.83;;;6.80;99.90;;;;;;5052024;28;20279;-69
2022/11/18 11:06:22;;;;;;;4.53;4.00;;;6.90;99.90;;;;;;5055076;28;20280;-69
2022/11/18 11:08:50;;;;;;;8.80;7.40;;;6.90;99.90;;;;;;5054997;28;20229;-69
2022/11/18 11:11:24;;;;;;;4.93;4.33;;;6.90;99.90;;;;;;5055133;28;20561;-69
2022/11/18 11:13:56;;;;;;;7.30;5.47;;;6.90;99.90;;;;;;5055277;28;20236;-69
2022/11/18 11:16:25;;;;;;;13.37;8.07;;;6.90;99.90;;;;;;5055389;28;20284;-69
2022/11/18 11:18:58;;;;;;;5.97;5.37;;;6.90;99.90;;;;;;5055153;28;20206;-70
2022/11/18 11:21:27;;;;;;;4.67;4.27;;;6.90;99.90;;;;;;5055087;28;20202;-69
2022/11/18 11:23:53;;;;;;;5.20;4.70;;;6.90;99.90;;;;;;5055254;28;20289;-70
2022/11/18 11:26:27;;;;;;;5.27;4.07;;;6.90;99.90;;;;;;5055506;28;20206;-70
2022/11/18 11:29:00;;;;;;;4.00;3.70;;;7.00;99.90;;;;;;5055194;28;20202;-70
2022/11/18 11:31:35;;;;;;;4.17;3.60;;;7.00;99.90;;;;;;5054838;28;20656;-70
2022/11/18 11:34:10;;;;;;;4.23;3.83;;;7.00;99.90;;;;;;5054868;28;20248;-69
2022/11/18 11:36:43;;;;;;;5.07;3.53;;;7.10;99.90;;;;;;5054727;28;20291;-70
2022/11/18 11:39:39;;;;;;;4.10;3.70;;;7.10;99.90;;;;;;5054557;28;20197;-70
2022/11/18 11:42:15;;;;;;;4.20;3.73;;;7.20;99.90;;;;;;5054155;28;20213;-69
2022/11/18 11:44:53;;;;;;;3.53;3.23;;;7.20;99.90;;;;;;5054363;28;20243;-69
2022/11/18 11:47:48;;;;;;;4.00;3.60;;;7.20;99.90;;;;;;5054439;28;20202;-69
2022/11/18 11:50:22;;;;;;;4.37;3.93;;;7.20;99.90;;;;;;5054266;28;20229;-69
2022/11/18 11:53:10;;;;;;;6.40;3.80;;;7.30;99.90;;;;;;5053741;28;20248;-69
2022/11/18 11:55:52;;;;;;;4.37;3.37;;;7.40;99.90;;;;;;5054135;28;20256;-71
2022/11/18 11:58:33;;;;;;;3.80;3.37;;;7.40;99.90;;;;;;5053937;28;20201;-71
2022/11/18 12:01:06;;;;;;;3.20;2.70;;;7.50;99.90;;;;;;5053988;28;20201;-71
2022/11/18 12:03:45;;;;;;;4.00;2.60;;;7.60;99.90;;;;;;5053781;28;20305;-71
2022/11/18 12:06:12;;;;;;;2.57;2.37;;;7.60;99.90;;;;;;5053761;28;20228;-70
2022/11/18 12:08:49;;;;;;;2.60;2.20;;;7.60;99.90;;;;;;5053524;28;20628;-71
2022/11/18 12:11:26;;;;;;;2.63;2.37;;;7.60;99.90;;;;;;5053976;28;20201;-71
2022/11/18 12:13:59;;;;;;;2.33;2.07;;;7.60;99.90;;;;;;5053478;28;20518;-71
2022/11/18 12:16:36;;;;;;;1.77;1.67;;;7.60;99.90;;;;;;5053732;28;20208;-70
2022/11/18 12:19:07;;;;;;;2.57;1.87;;;7.60;99.90;;;;;;5053549;28;20255;-71
2022/11/18 12:21:59;;;;;;;2.43;2.23;;;7.60;99.90;;;;;;5053528;28;20197;-71
2022/11/18 12:24:30;;;;;;;1.90;1.70;;;7.60;99.90;;;;;;5053423;28;20211;-70
2022/11/18 12:26:58;;;;;;;2.07;1.87;;;7.60;99.90;;;;;;5053533;28;20193;-70
2022/11/18 12:29:30;;;;;;;2.27;2.07;;;7.70;99.90;;;;;;5053354;28;20231;-71
2022/11/18 12:32:00;;;;;;;2.20;2.00;;;7.70;99.90;;;;;;5053364;28;20274;-70
2022/11/18 12:34:38;;;;;;;2.57;2.23;;;7.70;99.90;;;;;;5053384;28;20205;-72
2022/11/18 12:37:39;;;;;;;2.90;2.20;;;7.90;99.90;;;;;;5053088;28;20441;-72
2022/11/18 12:40:08;;;;;;;2.47;2.20;;;7.80;99.90;;;;;;5039558;28;20197;-71
2022/11/18 12:46:00;;;;;;;2.80;2.37;;;7.80;99.90;;;;;;5054535;28;20208;-71
2022/11/18 12:48:43;;;;;;;4.13;3.10;;;7.80;99.90;;;;;;5053415;28;20209;-71
2022/11/18 12:51:39;;;;;;;4.53;3.77;;;7.80;99.90;;;;;;5051100;28;20205;-71
2022/11/18 12:54:24;;;;;;;7.13;5.27;;;7.70;99.90;;;;;;5053324;28;20301;-70
2022/11/18 12:56:51;;;;;;;23.03;13.37;;;7.80;99.90;;;;;;5053194;28;20201;-71
2022/11/18 12:59:27;;;;;;;5.20;4.70;;;7.80;99.90;;;;;;5052913;28;20284;-72
2022/11/18 13:02:03;;;;;;;12.83;9.53;;;7.80;99.90;;;;;;5052764;28;20204;-72
2022/11/18 13:04:31;;;;;;;25.23;20.37;;;7.80;99.90;;;;;;5052923;28;20253;-72
2022/11/18 13:06:59;;;;;;;9.17;6.90;;;7.90;99.90;;;;;;5052704;28;20232;-72
2022/11/18 13:09:29;;;;;;;5.50;4.90;;;7.80;99.90;;;;;;5052940;28;20194;-73
2022/11/18 13:11:59;;;;;;;7.47;5.00;;;7.80;99.90;;;;;;5052906;28;20193;-72
2022/11/18 13:20:29;;;;;;;12.20;9.17;;;7.80;99.90;;;;;;5052649;28;20565;-71
2022/11/18 13:25:44;;;;;;;4.90;4.50;;;7.90;99.90;;;;;;5053283;28;20670;-71
2022/11/18 13:28:21;;;;;;;4.73;4.33;;;7.70;99.90;;;;;;5052958;28;20206;-72
2022/11/18 13:30:53;;;;;;;3.70;3.40;;;7.70;99.90;;;;;;5052747;28;20206;-72
2022/11/18 13:33:19;;;;;;;6.37;5.73;;;7.70;99.90;;;;;;5052609;28;20198;-71
2022/11/18 13:35:47;;;;;;;12.53;8.70;;;7.70;99.90;;;;;;5052574;28;20198;-72
2022/11/18 13:38:24;;;;;;;4.87;4.30;;;7.70;99.90;;;;;;5052348;28;20675;-72